sensor_id;sensor_type;location;lat;lon;timestamp;P1;durP1;ratioP1;P2;durP2;ratioP2
60054;SDS011;45930;53.514;55.904;2023-06-22T00:00:28;11.38;;;7.05;;
60054;SDS011;45930;53.514;55.904;2023-06-22T00:01:29;9.50;;;6.28;;
60054;SDS011;45930;53.514;55.904;2023-06-22T00:02:30;9.60;;;5.78;;
60054;SDS011;45930;53.514;55.904;2023-06-22T00:03:31;9.63;;;6.60;;
60054;SDS011;45930;53.514;55.904;2023-06-22T00:04:32;9.23;;;6.20;;
60054;SDS011;45930;53.514;55.904;2023-06-22T00:05:32;9.50;;;6.25;;
60054;SDS011;45930;53.514;55.904;2023-06-22T00:06:33;9.65;;;6.63;;
60054;SDS011;45930;53.514;55.904;2023-06-22T00:07:34;10.75;;;6.22;;
60054;SDS011;45930;53.514;55.904;2023-06-22T00:08:35;11.00;;;6.18;;
60054;SDS011;45930;53.514;55.904;2023-06-22T00:09:36;11.18;;;6.63;;
60054;SDS011;45930;53.514;55.904;2023-06-22T00:10:36;11.40;;;6.57;;
60054;SDS011;45930;53.514;55.904;2023-06-22T00:11:37;9.40;;;6.32;;
60054;SDS011;45930;53.514;55.904;2023-06-22T00:12:38;8.82;;;6.10;;
60054;SDS011;45930;53.514;55.904;2023-06-22T00:13:39;10.75;;;6.88;;
60054;SDS011;45930;53.514;55.904;2023-06-22T00:14:40;8.68;;;6.00;;
60054;SDS011;45930;53.514;55.904;2023-06-22T00:15:41;9.88;;;6.88;;
60054;SDS011;45930;53.514;55.904;2023-06-22T00:16:42;9.88;;;6.07;;
60054;SDS011;45930;53.514;55.904;2023-06-22T00:17:43;9.95;;;6.18;;
60054;SDS011;45930;53.514;55.904;2023-06-22T00:18:44;10.18;;;6.60;;
60054;SDS011;45930;53.514;55.904;2023-06-22T00:19:47;9.85;;;6.57;;
60054;SDS011;45930;53.514;55.904;2023-06-22T00:20:56;10.20;;;5.95;;
60054;SDS011;45930;53.514;55.904;2023-06-22T00:21:59;11.00;;;6.35;;
60054;SDS011;45930;53.514;55.904;2023-06-22T00:23:00;8.77;;;5.85;;
60054;SDS011;45930;53.514;55.904;2023-06-22T00:24:01;10.27;;;7.15;;
60054;SDS011;45930;53.514;55.904;2023-06-22T00:25:02;12.93;;;7.45;;
60054;SDS011;45930;53.514;55.904;2023-06-22T00:26:04;9.38;;;6.07;;
60054;SDS011;45930;53.514;55.904;2023-06-22T00:27:05;9.23;;;6.00;;
60054;SDS011;45930;53.514;55.904;2023-06-22T00:28:06;10.35;;;6.38;;
60054;SDS011;45930;53.514;55.904;2023-06-22T00:29:08;10.27;;;6.55;;
60054;SDS011;45930;53.514;55.904;2023-06-22T00:30:08;10.45;;;6.45;;
60054;SDS011;45930;53.514;55.904;2023-06-22T00:31:10;10.80;;;6.32;;
60054;SDS011;45930;53.514;55.904;2023-06-22T00:32:10;12.63;;;6.13;;
60054;SDS011;45930;53.514;55.904;2023-06-22T00:33:11;10.27;;;6.07;;
60054;SDS011;45930;53.514;55.904;2023-06-22T00:34:12;9.95;;;6.65;;
60054;SDS011;45930;53.514;55.904;2023-06-22T00:35:13;9.77;;;6.90;;
60054;SDS011;45930;53.514;55.904;2023-06-22T00:36:14;11.93;;;6.65;;
60054;SDS011;45930;53.514;55.904;2023-06-22T00:37:17;10.15;;;6.47;;
60054;SDS011;45930;53.514;55.904;2023-06-22T00:38:18;11.20;;;6.50;;
60054;SDS011;45930;53.514;55.904;2023-06-22T00:39:23;11.23;;;7.13;;
60054;SDS011;45930;53.514;55.904;2023-06-22T00:40:23;10.90;;;6.13;;
60054;SDS011;45930;53.514;55.904;2023-06-22T00:41:24;10.05;;;6.70;;
60054;SDS011;45930;53.514;55.904;2023-06-22T00:42:28;12.13;;;7.10;;
60054;SDS011;45930;53.514;55.904;2023-06-22T00:43:29;10.38;;;6.57;;
60054;SDS011;45930;53.514;55.904;2023-06-22T00:44:30;11.10;;;5.93;;
60054;SDS011;45930;53.514;55.904;2023-06-22T00:45:31;9.50;;;6.95;;
60054;SDS011;45930;53.514;55.904;2023-06-22T00:46:32;9.55;;;6.28;;
60054;SDS011;45930;53.514;55.904;2023-06-22T00:47:34;10.52;;;6.97;;
60054;SDS011;45930;53.514;55.904;2023-06-22T00:48:36;11.80;;;6.32;;
60054;SDS011;45930;53.514;55.904;2023-06-22T00:49:37;10.27;;;6.38;;
60054;SDS011;45930;53.514;55.904;2023-06-22T00:50:39;9.63;;;6.40;;
60054;SDS011;45930;53.514;55.904;2023-06-22T00:51:40;10.35;;;6.53;;
60054;SDS011;45930;53.514;55.904;2023-06-22T00:52:48;11.63;;;6.72;;
60054;SDS011;45930;53.514;55.904;2023-06-22T00:53:53;11.13;;;6.78;;
60054;SDS011;45930;53.514;55.904;2023-06-22T00:54:55;9.25;;;5.50;;
60054;SDS011;45930;53.514;55.904;2023-06-22T00:55:57;10.30;;;6.10;;
60054;SDS011;45930;53.514;55.904;2023-06-22T00:57:00;9.27;;;5.93;;
60054;SDS011;45930;53.514;55.904;2023-06-22T00:58:01;11.02;;;6.40;;
60054;SDS011;45930;53.514;55.904;2023-06-22T00:59:02;8.48;;;5.53;;
60054;SDS011;45930;53.514;55.904;2023-06-22T01:00:04;9.30;;;6.38;;
60054;SDS011;45930;53.514;55.904;2023-06-22T01:01:09;9.25;;;6.03;;
60054;SDS011;45930;53.514;55.904;2023-06-22T01:02:10;8.48;;;5.32;;
60054;SDS011;45930;53.514;55.904;2023-06-22T01:03:12;10.63;;;6.07;;
60054;SDS011;45930;53.514;55.904;2023-06-22T01:04:13;9.20;;;4.85;;
60054;SDS011;45930;53.514;55.904;2023-06-22T01:05:14;8.82;;;6.20;;
60054;SDS011;45930;53.514;55.904;2023-06-22T01:06:15;9.82;;;5.90;;
60054;SDS011;45930;53.514;55.904;2023-06-22T01:07:30;7.75;;;5.20;;
60054;SDS011;45930;53.514;55.904;2023-06-22T01:08:39;8.95;;;6.05;;
60054;SDS011;45930;53.514;55.904;2023-06-22T01:10:55;8.90;;;5.85;;
60054;SDS011;45930;53.514;55.904;2023-06-22T01:12:06;10.63;;;6.57;;
60054;SDS011;45930;53.514;55.904;2023-06-22T01:13:21;11.65;;;6.55;;
60054;SDS011;45930;53.514;55.904;2023-06-22T01:16:41;9.93;;;6.45;;
60054;SDS011;45930;53.514;55.904;2023-06-22T01:17:36;10.03;;;5.87;;
60054;SDS011;45930;53.514;55.904;2023-06-22T01:18:43;10.75;;;6.53;;
60054;SDS011;45930;53.514;55.904;2023-06-22T01:19:49;8.57;;;5.85;;
60054;SDS011;45930;53.514;55.904;2023-06-22T01:20:56;10.50;;;6.85;;
60054;SDS011;45930;53.514;55.904;2023-06-22T01:21:58;9.30;;;6.13;;
60054;SDS011;45930;53.514;55.904;2023-06-22T01:29:15;11.82;;;8.20;;
60054;SDS011;45930;53.514;55.904;2023-06-22T01:30:17;13.88;;;8.40;;
60054;SDS011;45930;53.514;55.904;2023-06-22T01:31:20;14.52;;;8.80;;
60054;SDS011;45930;53.514;55.904;2023-06-22T01:32:24;11.68;;;8.68;;
60054;SDS011;45930;53.514;55.904;2023-06-22T01:33:25;13.93;;;9.50;;
60054;SDS011;45930;53.514;55.904;2023-06-22T01:34:27;13.55;;;9.40;;
60054;SDS011;45930;53.514;55.904;2023-06-22T01:35:29;15.32;;;10.10;;
60054;SDS011;45930;53.514;55.904;2023-06-22T01:36:31;12.02;;;8.43;;
60054;SDS011;45930;53.514;55.904;2023-06-22T01:37:33;10.45;;;7.57;;
60054;SDS011;45930;53.514;55.904;2023-06-22T01:38:37;11.50;;;8.35;;
60054;SDS011;45930;53.514;55.904;2023-06-22T01:39:38;11.68;;;7.88;;
60054;SDS011;45930;53.514;55.904;2023-06-22T01:40:40;12.35;;;7.70;;
60054;SDS011;45930;53.514;55.904;2023-06-22T01:41:41;11.38;;;7.38;;
60054;SDS011;45930;53.514;55.904;2023-06-22T01:42:43;11.05;;;6.75;;
60054;SDS011;45930;53.514;55.904;2023-06-22T01:43:45;11.55;;;7.18;;
60054;SDS011;45930;53.514;55.904;2023-06-22T01:44:47;10.73;;;7.00;;
60054;SDS011;45930;53.514;55.904;2023-06-22T01:45:47;9.05;;;5.70;;
60054;SDS011;45930;53.514;55.904;2023-06-22T01:46:49;9.32;;;5.68;;
60054;SDS011;45930;53.514;55.904;2023-06-22T01:47:50;9.27;;;6.28;;
60054;SDS011;45930;53.514;55.904;2023-06-22T01:48:51;9.63;;;6.30;;
60054;SDS011;45930;53.514;55.904;2023-06-22T01:49:53;12.88;;;6.68;;
60054;SDS011;45930;53.514;55.904;2023-06-22T01:50:55;9.57;;;5.90;;
60054;SDS011;45930;53.514;55.904;2023-06-22T01:51:56;9.15;;;5.88;;
60054;SDS011;45930;53.514;55.904;2023-06-22T01:52:57;8.85;;;6.18;;
60054;SDS011;45930;53.514;55.904;2023-06-22T01:53:58;8.82;;;6.32;;
60054;SDS011;45930;53.514;55.904;2023-06-22T01:54:59;9.70;;;6.35;;
60054;SDS011;45930;53.514;55.904;2023-06-22T01:56:00;8.70;;;5.47;;
60054;SDS011;45930;53.514;55.904;2023-06-22T01:57:01;8.30;;;5.55;;
60054;SDS011;45930;53.514;55.904;2023-06-22T01:58:02;9.25;;;6.00;;
60054;SDS011;45930;53.514;55.904;2023-06-22T01:59:05;8.32;;;6.28;;
60054;SDS011;45930;53.514;55.904;2023-06-22T02:00:17;8.55;;;5.75;;
60054;SDS011;45930;53.514;55.904;2023-06-22T02:01:27;8.15;;;5.43;;
60054;SDS011;45930;53.514;55.904;2023-06-22T02:02:55;8.32;;;6.03;;
60054;SDS011;45930;53.514;55.904;2023-06-22T02:04:23;7.13;;;5.22;;
60054;SDS011;45930;53.514;55.904;2023-06-22T02:05:28;8.73;;;5.38;;
60054;SDS011;45930;53.514;55.904;2023-06-22T02:06:36;8.68;;;5.88;;
60054;SDS011;45930;53.514;55.904;2023-06-22T02:07:45;8.60;;;5.90;;
60054;SDS011;45930;53.514;55.904;2023-06-22T02:08:51;10.05;;;5.88;;
60054;SDS011;45930;53.514;55.904;2023-06-22T02:09:57;10.90;;;5.63;;
60054;SDS011;45930;53.514;55.904;2023-06-22T02:10:59;7.93;;;5.07;;
60054;SDS011;45930;53.514;55.904;2023-06-22T02:12:02;8.10;;;5.53;;
60054;SDS011;45930;53.514;55.904;2023-06-22T02:13:06;8.30;;;5.43;;
60054;SDS011;45930;53.514;55.904;2023-06-22T02:14:08;7.18;;;5.10;;
60054;SDS011;45930;53.514;55.904;2023-06-22T02:15:10;9.07;;;5.85;;
60054;SDS011;45930;53.514;55.904;2023-06-22T02:16:13;7.35;;;5.00;;
60054;SDS011;45930;53.514;55.904;2023-06-22T02:17:17;8.20;;;5.65;;
60054;SDS011;45930;53.514;55.904;2023-06-22T02:18:18;7.68;;;5.32;;
60054;SDS011;45930;53.514;55.904;2023-06-22T02:19:24;8.23;;;6.18;;
60054;SDS011;45930;53.514;55.904;2023-06-22T02:20:25;8.10;;;5.50;;
60054;SDS011;45930;53.514;55.904;2023-06-22T02:21:26;9.13;;;5.65;;
60054;SDS011;45930;53.514;55.904;2023-06-22T02:22:27;8.30;;;5.68;;
60054;SDS011;45930;53.514;55.904;2023-06-22T02:23:28;7.10;;;5.05;;
60054;SDS011;45930;53.514;55.904;2023-06-22T02:24:29;8.02;;;5.45;;
60054;SDS011;45930;53.514;55.904;2023-06-22T02:25:32;7.25;;;5.05;;
60054;SDS011;45930;53.514;55.904;2023-06-22T02:26:33;9.32;;;5.53;;
60054;SDS011;45930;53.514;55.904;2023-06-22T02:27:34;7.55;;;5.30;;
60054;SDS011;45930;53.514;55.904;2023-06-22T02:28:35;7.07;;;5.47;;
60054;SDS011;45930;53.514;55.904;2023-06-22T02:29:36;6.05;;;4.60;;
60054;SDS011;45930;53.514;55.904;2023-06-22T02:30:37;8.20;;;5.50;;
60054;SDS011;45930;53.514;55.904;2023-06-22T02:31:38;8.30;;;5.38;;
60054;SDS011;45930;53.514;55.904;2023-06-22T02:32:39;7.28;;;5.10;;
60054;SDS011;45930;53.514;55.904;2023-06-22T02:33:42;6.40;;;5.03;;
60054;SDS011;45930;53.514;55.904;2023-06-22T02:34:44;8.18;;;4.40;;
60054;SDS011;45930;53.514;55.904;2023-06-22T02:35:47;8.05;;;4.97;;
60054;SDS011;45930;53.514;55.904;2023-06-22T02:36:49;8.15;;;5.00;;
60054;SDS011;45930;53.514;55.904;2023-06-22T02:37:53;7.28;;;5.03;;
60054;SDS011;45930;53.514;55.904;2023-06-22T02:38:54;6.28;;;4.43;;
60054;SDS011;45930;53.514;55.904;2023-06-22T02:40:01;6.07;;;4.50;;
60054;SDS011;45930;53.514;55.904;2023-06-22T02:41:04;6.03;;;4.63;;
60054;SDS011;45930;53.514;55.904;2023-06-22T02:42:06;6.70;;;5.35;;
60054;SDS011;45930;53.514;55.904;2023-06-22T02:43:07;8.52;;;4.53;;
60054;SDS011;45930;53.514;55.904;2023-06-22T02:44:08;6.35;;;4.63;;
60054;SDS011;45930;53.514;55.904;2023-06-22T02:45:09;5.72;;;4.47;;
60054;SDS011;45930;53.514;55.904;2023-06-22T02:46:10;7.43;;;4.45;;
60054;SDS011;45930;53.514;55.904;2023-06-22T02:47:11;6.05;;;4.93;;
60054;SDS011;45930;53.514;55.904;2023-06-22T02:48:11;7.00;;;4.97;;
60054;SDS011;45930;53.514;55.904;2023-06-22T02:49:12;5.72;;;4.45;;
60054;SDS011;45930;53.514;55.904;2023-06-22T02:50:13;6.05;;;4.80;;
60054;SDS011;45930;53.514;55.904;2023-06-22T02:51:14;7.28;;;4.25;;
60054;SDS011;45930;53.514;55.904;2023-06-22T02:52:15;6.97;;;4.50;;
60054;SDS011;45930;53.514;55.904;2023-06-22T02:53:16;8.63;;;4.72;;
60054;SDS011;45930;53.514;55.904;2023-06-22T02:54:16;5.97;;;4.20;;
60054;SDS011;45930;53.514;55.904;2023-06-22T02:55:18;6.13;;;4.22;;
60054;SDS011;45930;53.514;55.904;2023-06-22T02:56:19;6.28;;;4.50;;
60054;SDS011;45930;53.514;55.904;2023-06-22T02:57:25;6.28;;;4.10;;
60054;SDS011;45930;53.514;55.904;2023-06-22T02:58:25;7.10;;;4.45;;
60054;SDS011;45930;53.514;55.904;2023-06-22T02:59:26;5.72;;;4.15;;
60054;SDS011;45930;53.514;55.904;2023-06-22T03:00:27;7.28;;;4.68;;
60054;SDS011;45930;53.514;55.904;2023-06-22T03:01:30;5.78;;;3.97;;
60054;SDS011;45930;53.514;55.904;2023-06-22T03:02:37;6.18;;;4.35;;
60054;SDS011;45930;53.514;55.904;2023-06-22T03:03:38;6.22;;;4.20;;
60054;SDS011;45930;53.514;55.904;2023-06-22T03:04:39;5.72;;;4.28;;
60054;SDS011;45930;53.514;55.904;2023-06-22T03:05:40;6.13;;;3.97;;
60054;SDS011;45930;53.514;55.904;2023-06-22T03:06:41;5.45;;;4.05;;
60054;SDS011;45930;53.514;55.904;2023-06-22T03:07:42;6.40;;;4.35;;
60054;SDS011;45930;53.514;55.904;2023-06-22T03:08:43;5.18;;;3.83;;
60054;SDS011;45930;53.514;55.904;2023-06-22T03:09:44;7.57;;;5.07;;
60054;SDS011;45930;53.514;55.904;2023-06-22T03:10:45;5.22;;;3.72;;
60054;SDS011;45930;53.514;55.904;2023-06-22T03:11:46;4.47;;;3.80;;
60054;SDS011;45930;53.514;55.904;2023-06-22T03:12:46;6.35;;;4.78;;
60054;SDS011;45930;53.514;55.904;2023-06-22T03:13:47;6.43;;;3.97;;
60054;SDS011;45930;53.514;55.904;2023-06-22T03:14:48;5.13;;;4.15;;
60054;SDS011;45930;53.514;55.904;2023-06-22T03:15:49;6.05;;;4.50;;
60054;SDS011;45930;53.514;55.904;2023-06-22T03:16:50;6.70;;;4.80;;
60054;SDS011;45930;53.514;55.904;2023-06-22T03:17:51;7.60;;;4.65;;
60054;SDS011;45930;53.514;55.904;2023-06-22T03:18:52;5.75;;;5.15;;
60054;SDS011;45930;53.514;55.904;2023-06-22T03:19:57;5.97;;;4.07;;
60054;SDS011;45930;53.514;55.904;2023-06-22T03:20:57;5.97;;;4.47;;
60054;SDS011;45930;53.514;55.904;2023-06-22T03:21:59;4.80;;;3.88;;
60054;SDS011;45930;53.514;55.904;2023-06-22T03:23:00;5.20;;;3.97;;
60054;SDS011;45930;53.514;55.904;2023-06-22T03:24:01;6.60;;;4.45;;
60054;SDS011;45930;53.514;55.904;2023-06-22T03:25:02;6.93;;;4.88;;
60054;SDS011;45930;53.514;55.904;2023-06-22T03:26:08;6.20;;;4.50;;
60054;SDS011;45930;53.514;55.904;2023-06-22T03:27:09;6.97;;;4.72;;
60054;SDS011;45930;53.514;55.904;2023-06-22T03:28:10;7.72;;;4.57;;
60054;SDS011;45930;53.514;55.904;2023-06-22T03:29:11;6.20;;;5.28;;
60054;SDS011;45930;53.514;55.904;2023-06-22T03:30:11;8.23;;;4.95;;
60054;SDS011;45930;53.514;55.904;2023-06-22T03:31:12;6.45;;;5.40;;
60054;SDS011;45930;53.514;55.904;2023-06-22T03:32:13;6.05;;;5.07;;
60054;SDS011;45930;53.514;55.904;2023-06-22T03:33:14;6.15;;;4.47;;
60054;SDS011;45930;53.514;55.904;2023-06-22T03:34:15;7.50;;;4.75;;
60054;SDS011;45930;53.514;55.904;2023-06-22T03:35:16;4.95;;;3.85;;
60054;SDS011;45930;53.514;55.904;2023-06-22T03:36:17;5.60;;;4.63;;
60054;SDS011;45930;53.514;55.904;2023-06-22T03:37:22;6.03;;;4.20;;
60054;SDS011;45930;53.514;55.904;2023-06-22T03:38:23;6.80;;;4.18;;
60054;SDS011;45930;53.514;55.904;2023-06-22T03:39:24;6.13;;;4.53;;
60054;SDS011;45930;53.514;55.904;2023-06-22T03:40:24;5.00;;;3.85;;
60054;SDS011;45930;53.514;55.904;2023-06-22T03:41:25;7.05;;;4.43;;
60054;SDS011;45930;53.514;55.904;2023-06-22T03:42:26;5.25;;;4.13;;
60054;SDS011;45930;53.514;55.904;2023-06-22T03:43:27;5.05;;;4.30;;
60054;SDS011;45930;53.514;55.904;2023-06-22T03:44:28;6.95;;;4.47;;
60054;SDS011;45930;53.514;55.904;2023-06-22T03:45:28;5.10;;;4.22;;
60054;SDS011;45930;53.514;55.904;2023-06-22T03:46:29;7.15;;;4.43;;
60054;SDS011;45930;53.514;55.904;2023-06-22T03:47:30;7.40;;;4.47;;
60054;SDS011;45930;53.514;55.904;2023-06-22T03:48:31;4.97;;;4.05;;
60054;SDS011;45930;53.514;55.904;2023-06-22T03:49:31;7.97;;;4.40;;
60054;SDS011;45930;53.514;55.904;2023-06-22T03:50:32;4.80;;;3.95;;
60054;SDS011;45930;53.514;55.904;2023-06-22T03:51:33;5.22;;;4.10;;
60054;SDS011;45930;53.514;55.904;2023-06-22T03:52:34;6.43;;;4.13;;
60054;SDS011;45930;53.514;55.904;2023-06-22T03:53:35;9.23;;;4.10;;
60054;SDS011;45930;53.514;55.904;2023-06-22T03:54:36;5.28;;;4.07;;
60054;SDS011;45930;53.514;55.904;2023-06-22T03:55:37;6.07;;;3.90;;
60054;SDS011;45930;53.514;55.904;2023-06-22T03:56:38;5.53;;;4.20;;
60054;SDS011;45930;53.514;55.904;2023-06-22T03:57:38;6.22;;;4.25;;
60054;SDS011;45930;53.514;55.904;2023-06-22T03:58:39;6.72;;;4.53;;
60054;SDS011;45930;53.514;55.904;2023-06-22T03:59:43;6.72;;;4.55;;
60054;SDS011;45930;53.514;55.904;2023-06-22T04:00:47;5.72;;;3.90;;
60054;SDS011;45930;53.514;55.904;2023-06-22T04:01:48;6.47;;;4.45;;
60054;SDS011;45930;53.514;55.904;2023-06-22T04:02:49;5.57;;;3.97;;
60054;SDS011;45930;53.514;55.904;2023-06-22T04:03:50;8.32;;;4.25;;
60054;SDS011;45930;53.514;55.904;2023-06-22T04:04:51;5.60;;;4.18;;
60054;SDS011;45930;53.514;55.904;2023-06-22T04:05:52;6.25;;;4.30;;
60054;SDS011;45930;53.514;55.904;2023-06-22T04:06:53;5.78;;;4.15;;
60054;SDS011;45930;53.514;55.904;2023-06-22T04:07:53;6.68;;;4.07;;
60054;SDS011;45930;53.514;55.904;2023-06-22T04:08:54;6.45;;;3.40;;
60054;SDS011;45930;53.514;55.904;2023-06-22T04:09:55;4.95;;;3.70;;
60054;SDS011;45930;53.514;55.904;2023-06-22T04:10:56;5.55;;;4.20;;
60054;SDS011;45930;53.514;55.904;2023-06-22T04:11:57;4.78;;;3.75;;
60054;SDS011;45930;53.514;55.904;2023-06-22T04:12:57;6.00;;;4.20;;
60054;SDS011;45930;53.514;55.904;2023-06-22T04:13:58;6.05;;;3.92;;
60054;SDS011;45930;53.514;55.904;2023-06-22T04:14:59;4.47;;;3.63;;
60054;SDS011;45930;53.514;55.904;2023-06-22T04:16:00;5.35;;;3.60;;
60054;SDS011;45930;53.514;55.904;2023-06-22T04:17:02;5.28;;;3.92;;
60054;SDS011;45930;53.514;55.904;2023-06-22T04:18:05;4.25;;;3.67;;
60054;SDS011;45930;53.514;55.904;2023-06-22T04:19:06;5.13;;;3.70;;
60054;SDS011;45930;53.514;55.904;2023-06-22T04:20:07;7.30;;;4.22;;
60054;SDS011;45930;53.514;55.904;2023-06-22T04:21:09;5.70;;;3.75;;
60054;SDS011;45930;53.514;55.904;2023-06-22T04:22:10;5.82;;;3.92;;
60054;SDS011;45930;53.514;55.904;2023-06-22T04:23:12;8.27;;;3.72;;
60054;SDS011;45930;53.514;55.904;2023-06-22T04:24:13;8.98;;;4.57;;
60054;SDS011;45930;53.514;55.904;2023-06-22T04:25:14;6.13;;;4.32;;
60054;SDS011;45930;53.514;55.904;2023-06-22T04:26:15;5.15;;;4.10;;
60054;SDS011;45930;53.514;55.904;2023-06-22T04:27:16;6.25;;;3.83;;
60054;SDS011;45930;53.514;55.904;2023-06-22T04:28:16;5.72;;;3.60;;
60054;SDS011;45930;53.514;55.904;2023-06-22T04:29:17;5.60;;;3.88;;
60054;SDS011;45930;53.514;55.904;2023-06-22T04:30:18;4.38;;;3.38;;
60054;SDS011;45930;53.514;55.904;2023-06-22T04:31:19;7.28;;;3.63;;
60054;SDS011;45930;53.514;55.904;2023-06-22T04:32:32;5.60;;;3.95;;
60054;SDS011;45930;53.514;55.904;2023-06-22T04:33:34;6.47;;;4.65;;
60054;SDS011;45930;53.514;55.904;2023-06-22T04:34:34;9.82;;;5.05;;
60054;SDS011;45930;53.514;55.904;2023-06-22T04:35:35;5.95;;;3.65;;
60054;SDS011;45930;53.514;55.904;2023-06-22T04:36:36;5.82;;;3.58;;
60054;SDS011;45930;53.514;55.904;2023-06-22T04:37:39;5.05;;;3.20;;
60054;SDS011;45930;53.514;55.904;2023-06-22T04:38:40;5.03;;;4.00;;
60054;SDS011;45930;53.514;55.904;2023-06-22T04:39:42;6.10;;;4.32;;
60054;SDS011;45930;53.514;55.904;2023-06-22T04:40:43;7.75;;;4.10;;
60054;SDS011;45930;53.514;55.904;2023-06-22T04:41:44;6.07;;;4.43;;
60054;SDS011;45930;53.514;55.904;2023-06-22T04:42:45;5.10;;;4.03;;
60054;SDS011;45930;53.514;55.904;2023-06-22T04:43:52;6.07;;;4.10;;
60054;SDS011;45930;53.514;55.904;2023-06-22T04:44:54;5.85;;;4.10;;
60054;SDS011;45930;53.514;55.904;2023-06-22T04:45:55;5.15;;;4.20;;
60054;SDS011;45930;53.514;55.904;2023-06-22T04:46:57;5.43;;;4.38;;
60054;SDS011;45930;53.514;55.904;2023-06-22T04:48:04;5.15;;;4.43;;
60054;SDS011;45930;53.514;55.904;2023-06-22T04:49:08;6.47;;;4.63;;
60054;SDS011;45930;53.514;55.904;2023-06-22T04:50:13;6.38;;;4.22;;
60054;SDS011;45930;53.514;55.904;2023-06-22T04:51:14;5.72;;;4.32;;
60054;SDS011;45930;53.514;55.904;2023-06-22T04:52:15;4.43;;;3.53;;
60054;SDS011;45930;53.514;55.904;2023-06-22T04:53:18;4.72;;;3.63;;
60054;SDS011;45930;53.514;55.904;2023-06-22T04:54:18;8.98;;;3.95;;
60054;SDS011;45930;53.514;55.904;2023-06-22T04:55:19;5.68;;;4.15;;
60054;SDS011;45930;53.514;55.904;2023-06-22T04:56:21;7.15;;;3.88;;
60054;SDS011;45930;53.514;55.904;2023-06-22T04:57:28;6.93;;;4.10;;
60054;SDS011;45930;53.514;55.904;2023-06-22T04:58:33;5.85;;;4.00;;
60054;SDS011;45930;53.514;55.904;2023-06-22T04:59:34;6.68;;;4.20;;
60054;SDS011;45930;53.514;55.904;2023-06-22T05:00:35;4.57;;;2.97;;
60054;SDS011;45930;53.514;55.904;2023-06-22T05:01:36;4.60;;;3.67;;
60054;SDS011;45930;53.514;55.904;2023-06-22T05:02:40;4.82;;;3.40;;
60054;SDS011;45930;53.514;55.904;2023-06-22T05:03:41;5.65;;;4.13;;
60054;SDS011;45930;53.514;55.904;2023-06-22T05:04:42;5.78;;;3.80;;
60054;SDS011;45930;53.514;55.904;2023-06-22T05:05:42;5.60;;;3.75;;
60054;SDS011;45930;53.514;55.904;2023-06-22T05:06:43;6.45;;;4.00;;
60054;SDS011;45930;53.514;55.904;2023-06-22T05:07:46;6.75;;;4.13;;
60054;SDS011;45930;53.514;55.904;2023-06-22T05:08:52;5.95;;;4.05;;
60054;SDS011;45930;53.514;55.904;2023-06-22T05:10:00;4.78;;;3.88;;
60054;SDS011;45930;53.514;55.904;2023-06-22T05:11:05;4.75;;;3.60;;
60054;SDS011;45930;53.514;55.904;2023-06-22T05:12:06;4.75;;;3.42;;
60054;SDS011;45930;53.514;55.904;2023-06-22T05:13:08;5.30;;;4.07;;
60054;SDS011;45930;53.514;55.904;2023-06-22T05:14:08;4.78;;;3.25;;
60054;SDS011;45930;53.514;55.904;2023-06-22T05:15:09;4.50;;;3.90;;
60054;SDS011;45930;53.514;55.904;2023-06-22T05:16:10;4.03;;;3.33;;
60054;SDS011;45930;53.514;55.904;2023-06-22T05:17:11;4.50;;;3.08;;
60054;SDS011;45930;53.514;55.904;2023-06-22T05:18:25;4.43;;;3.40;;
60054;SDS011;45930;53.514;55.904;2023-06-22T05:19:26;6.35;;;4.10;;
60054;SDS011;45930;53.514;55.904;2023-06-22T05:20:33;6.97;;;4.03;;
60054;SDS011;45930;53.514;55.904;2023-06-22T05:21:37;6.85;;;3.45;;
60054;SDS011;45930;53.514;55.904;2023-06-22T05:22:38;5.30;;;3.90;;
60054;SDS011;45930;53.514;55.904;2023-06-22T05:23:40;6.15;;;3.53;;
60054;SDS011;45930;53.514;55.904;2023-06-22T05:24:41;7.43;;;3.35;;
60054;SDS011;45930;53.514;55.904;2023-06-22T05:25:43;5.88;;;3.70;;
60054;SDS011;45930;53.514;55.904;2023-06-22T05:26:44;5.63;;;4.10;;
60054;SDS011;45930;53.514;55.904;2023-06-22T05:27:44;6.35;;;4.28;;
60054;SDS011;45930;53.514;55.904;2023-06-22T05:28:45;6.25;;;4.22;;
60054;SDS011;45930;53.514;55.904;2023-06-22T05:29:46;4.85;;;3.58;;
60054;SDS011;45930;53.514;55.904;2023-06-22T05:30:48;6.18;;;3.88;;
60054;SDS011;45930;53.514;55.904;2023-06-22T05:31:49;5.28;;;3.65;;
60054;SDS011;45930;53.514;55.904;2023-06-22T05:32:49;5.00;;;3.78;;
60054;SDS011;45930;53.514;55.904;2023-06-22T05:33:51;5.40;;;3.72;;
60054;SDS011;45930;53.514;55.904;2023-06-22T05:34:53;3.88;;;3.25;;
60054;SDS011;45930;53.514;55.904;2023-06-22T05:35:54;5.63;;;3.92;;
60054;SDS011;45930;53.514;55.904;2023-06-22T05:36:55;4.68;;;3.92;;
60054;SDS011;45930;53.514;55.904;2023-06-22T05:37:56;8.75;;;4.13;;
60054;SDS011;45930;53.514;55.904;2023-06-22T05:38:57;5.95;;;3.72;;
60054;SDS011;45930;53.514;55.904;2023-06-22T05:39:58;5.60;;;3.83;;
60054;SDS011;45930;53.514;55.904;2023-06-22T05:40:59;6.70;;;3.75;;
60054;SDS011;45930;53.514;55.904;2023-06-22T05:42:00;5.75;;;4.05;;
60054;SDS011;45930;53.514;55.904;2023-06-22T05:43:01;5.03;;;3.90;;
60054;SDS011;45930;53.514;55.904;2023-06-22T05:44:02;5.05;;;3.78;;
60054;SDS011;45930;53.514;55.904;2023-06-22T05:45:04;28.02;;;5.65;;
60054;SDS011;45930;53.514;55.904;2023-06-22T05:46:05;4.78;;;3.50;;
60054;SDS011;45930;53.514;55.904;2023-06-22T05:47:06;7.13;;;3.80;;
60054;SDS011;45930;53.514;55.904;2023-06-22T05:48:07;4.18;;;3.25;;
60054;SDS011;45930;53.514;55.904;2023-06-22T05:49:07;4.03;;;3.13;;
60054;SDS011;45930;53.514;55.904;2023-06-22T05:50:08;6.38;;;4.00;;
60054;SDS011;45930;53.514;55.904;2023-06-22T05:51:09;3.67;;;3.00;;
60054;SDS011;45930;53.514;55.904;2023-06-22T05:52:10;5.63;;;3.70;;
60054;SDS011;45930;53.514;55.904;2023-06-22T05:53:11;4.60;;;3.08;;
60054;SDS011;45930;53.514;55.904;2023-06-22T05:54:12;9.25;;;3.35;;
60054;SDS011;45930;53.514;55.904;2023-06-22T05:55:14;6.32;;;3.90;;
60054;SDS011;45930;53.514;55.904;2023-06-22T05:56:16;11.48;;;3.80;;
60054;SDS011;45930;53.514;55.904;2023-06-22T05:57:17;6.20;;;3.70;;
60054;SDS011;45930;53.514;55.904;2023-06-22T05:58:18;6.50;;;3.25;;
60054;SDS011;45930;53.514;55.904;2023-06-22T05:59:19;5.05;;;3.92;;
60054;SDS011;45930;53.514;55.904;2023-06-22T06:00:20;5.18;;;3.45;;
60054;SDS011;45930;53.514;55.904;2023-06-22T06:01:22;3.58;;;2.85;;
60054;SDS011;45930;53.514;55.904;2023-06-22T06:02:23;4.63;;;2.47;;
60054;SDS011;45930;53.514;55.904;2023-06-22T06:03:24;3.78;;;2.80;;
60054;SDS011;45930;53.514;55.904;2023-06-22T06:04:24;3.63;;;2.40;;
60054;SDS011;45930;53.514;55.904;2023-06-22T06:05:25;3.25;;;2.58;;
60054;SDS011;45930;53.514;55.904;2023-06-22T06:06:26;3.50;;;2.60;;
60054;SDS011;45930;53.514;55.904;2023-06-22T06:07:28;4.18;;;2.63;;
60054;SDS011;45930;53.514;55.904;2023-06-22T06:08:30;3.40;;;2.45;;
60054;SDS011;45930;53.514;55.904;2023-06-22T06:09:31;3.70;;;2.28;;
60054;SDS011;45930;53.514;55.904;2023-06-22T06:10:32;5.53;;;3.22;;
60054;SDS011;45930;53.514;55.904;2023-06-22T06:11:34;3.33;;;3.03;;
60054;SDS011;45930;53.514;55.904;2023-06-22T06:12:37;3.45;;;2.83;;
60054;SDS011;45930;53.514;55.904;2023-06-22T06:13:38;3.67;;;3.30;;
60054;SDS011;45930;53.514;55.904;2023-06-22T06:14:39;4.03;;;2.80;;
60054;SDS011;45930;53.514;55.904;2023-06-22T06:15:39;29.25;;;5.22;;
60054;SDS011;45930;53.514;55.904;2023-06-22T06:16:40;6.00;;;3.90;;
60054;SDS011;45930;53.514;55.904;2023-06-22T06:17:48;8.48;;;3.95;;